Time;durP1;ratioP1;P1;durP2;ratioP2;P2;SDS_P1;SDS_P2;PMS_P1;PMS_P2;Temp;Humidity;BMP_temperature;BMP_pressure;BME280_temperature;BME280_humidity;BME280_pressure;Samples;Min_cycle;Max_cycle;Signal;HPM_P1;HPM_P2
2023/07/07 00:02:26;;;;;;;2.67;1.80;;;19.30;44.60;;;;;;4968443;28;20089;-59
2023/07/07 00:04:53;;;;;;;3.35;2.15;;;19.30;44.80;;;;;;4973198;28;20540;-57
2023/07/07 00:07:20;;;;;;;3.03;1.70;;;19.30;44.90;;;;;;4979171;28;20050;-58
2023/07/07 00:09:49;;;;;;;2.45;1.77;;;19.20;45.00;;;;;;4974635;28;20053;-58
2023/07/07 00:12:17;;;;;;;4.43;1.60;;;19.20;45.10;;;;;;4977558;28;20069;-57
2023/07/07 00:14:44;;;;;;;4.28;1.63;;;19.20;45.00;;;;;;4975748;28;20061;-57
2023/07/07 00:17:16;;;;;;;3.05;1.98;;;19.10;44.90;;;;;;4979329;28;20053;-58
2023/07/07 00:19:43;;;;;;;3.00;1.95;;;19.10;45.00;;;;;;4975474;28;20574;-57
2023/07/07 00:22:10;;;;;;;3.30;1.95;;;19.10;45.10;;;;;;4973644;28;20495;-57
2023/07/07 00:24:38;;;;;;;3.72;1.65;;;19.10;45.20;;;;;;4978854;28;20054;-58
2023/07/07 00:27:07;;;;;;;5.43;2.38;;;19.00;45.40;;;;;;4976761;28;20055;-57
2023/07/07 00:29:34;;;;;;;3.95;1.75;;;19.00;45.40;;;;;;4975782;28;20074;-57
2023/07/07 00:32:01;;;;;;;3.78;1.58;;;19.00;45.30;;;;;;4967937;28;20054;-58
2023/07/07 00:34:29;;;;;;;2.42;1.70;;;18.90;45.40;;;;;;4976331;28;20399;-59
2023/07/07 00:36:57;;;;;;;3.25;1.77;;;18.90;45.50;;;;;;4972335;28;20054;-59
2023/07/07 00:39:24;;;;;;;1.95;1.52;;;18.90;45.60;;;;;;4979351;28;20494;-58
2023/07/07 00:41:51;;;;;;;2.40;1.48;;;18.80;45.70;;;;;;4975330;28;20065;-58
2023/07/07 00:44:20;;;;;;;2.47;1.65;;;18.80;45.60;;;;;;4977573;28;20073;-59
2023/07/07 00:46:47;;;;;;;4.22;1.90;;;18.80;45.60;;;;;;4976960;28;20050;-59
2023/07/07 00:49:18;;;;;;;3.72;1.70;;;18.70;45.50;;;;;;4979904;28;20399;-58
2023/07/07 00:51:50;;;;;;;2.60;1.55;;;18.70;45.60;;;;;;4963801;28;20050;-59
2023/07/07 00:54:31;;;;;;;2.75;1.65;;;18.70;45.70;;;;;;4974037;28;20054;-59
2023/07/07 00:56:59;;;;;;;3.22;1.65;;;18.60;45.80;;;;;;4977771;28;20050;-59
2023/07/07 00:59:31;;;;;;;2.58;1.60;;;18.60;45.80;;;;;;4973759;28;20066;-58
2023/07/07 01:02:02;;;;;;;2.85;1.60;;;18.60;46.10;;;;;;4971081;28;20058;-57
2023/07/07 01:04:30;;;;;;;2.15;1.58;;;18.60;46.20;;;;;;5004111;23;20062;-57
2023/07/07 01:07:01;;;;;;;3.42;1.67;;;18.50;46.30;;;;;;4979466;28;20049;-56
2023/07/07 01:09:28;;;;;;;1.73;1.30;;;18.50;47.00;;;;;;4980506;28;20058;-56
2023/07/07 01:11:56;;;;;;;2.30;1.50;;;18.50;46.60;;;;;;4977409;28;20054;-57
2023/07/07 01:14:27;;;;;;;2.50;1.73;;;18.40;46.60;;;;;;4979457;28;20054;-57
2023/07/07 01:17:06;;;;;;;2.95;1.77;;;18.40;46.70;;;;;;4979365;28;20064;-57
2023/07/07 01:20:00;;;;;;;4.25;1.58;;;18.40;47.30;;;;;;4979292;28;20414;-58
2023/07/07 01:23:07;;;;;;;2.03;1.55;;;18.40;47.00;;;;;;4976760;28;20422;-57
2023/07/07 01:25:55;;;;;;;2.38;1.38;;;18.40;47.00;;;;;;4977400;28;20425;-57
2023/07/07 01:28:42;;;;;;;2.28;1.50;;;18.40;46.80;;;;;;4979865;28;20046;-57
2023/07/07 01:31:14;;;;;;;4.32;1.80;;;18.30;46.80;;;;;;4976845;28;20050;-56
2023/07/07 01:33:43;;;;;;;7.43;1.67;;;18.30;46.80;;;;;;4981168;28;20058;-56
2023/07/07 01:36:10;;;;;;;3.63;1.77;;;18.30;46.90;;;;;;4975919;28;20053;-56
2023/07/07 01:38:39;;;;;;;2.72;1.40;;;18.20;46.80;;;;;;4979263;28;20057;-56
2023/07/07 01:41:21;;;;;;;2.80;1.80;;;18.20;47.00;;;;;;4979952;28;20054;-59
2023/07/07 01:43:57;;;;;;;3.55;1.75;;;18.20;47.10;;;;;;4979187;28;20058;-57
2023/07/07 01:46:30;;;;;;;2.92;1.73;;;18.10;47.20;;;;;;4978273;28;20414;-56
2023/07/07 01:49:04;;;;;;;2.78;1.67;;;18.10;47.30;;;;;;4981266;28;20046;-56
2023/07/07 01:51:38;;;;;;;3.65;1.85;;;18.10;47.50;;;;;;4977659;28;20077;-57
2023/07/07 01:54:08;;;;;;;3.88;1.90;;;18.10;48.10;;;;;;4978923;28;20441;-57
2023/07/07 01:56:36;;;;;;;3.05;1.60;;;18.10;47.60;;;;;;4979907;28;20474;-56
2023/07/07 01:59:04;;;;;;;3.55;1.77;;;18.00;47.60;;;;;;4980297;28;20854;-56
2023/07/07 02:01:32;;;;;;;2.97;1.75;;;18.00;47.70;;;;;;4976189;28;20061;-57
2023/07/07 02:04:00;;;;;;;2.88;1.88;;;18.00;47.80;;;;;;4978496;28;20062;-59
2023/07/07 02:06:27;;;;;;;2.55;1.60;;;18.00;47.90;;;;;;4978114;28;20051;-57
2023/07/07 02:08:54;;;;;;;3.45;1.85;;;18.00;47.90;;;;;;4979776;28;20406;-57
2023/07/07 02:11:21;;;;;;;2.72;1.98;;;17.90;47.90;;;;;;4978037;28;20407;-56
2023/07/07 02:13:49;;;;;;;2.22;1.70;;;17.90;48.00;;;;;;4978629;28;20054;-59
2023/07/07 02:16:16;;;;;;;3.28;1.90;;;17.90;48.10;;;;;;4979549;28;20054;-59
2023/07/07 02:18:48;;;;;;;2.60;1.60;;;17.90;48.10;;;;;;4980944;28;20502;-59
2023/07/07 02:21:16;;;;;;;2.78;1.63;;;17.90;48.10;;;;;;4972240;28;20413;-60
2023/07/07 02:23:44;;;;;;;4.03;1.98;;;17.90;48.10;;;;;;4978431;28;20050;-59
2023/07/07 02:26:11;;;;;;;4.05;1.70;;;17.80;48.10;;;;;;4983457;28;20062;-59
2023/07/07 02:28:38;;;;;;;3.70;1.92;;;17.80;48.20;;;;;;4983228;28;20054;-60
2023/07/07 02:31:06;;;;;;;3.20;1.65;;;17.80;48.30;;;;;;4982245;28;20066;-60
2023/07/07 02:33:33;;;;;;;2.45;1.50;;;17.80;48.30;;;;;;4982325;28;20399;-59
2023/07/07 02:36:05;;;;;;;3.20;1.85;;;17.80;48.30;;;;;;4978742;28;20061;-60
2023/07/07 02:38:33;;;;;;;2.90;1.77;;;17.80;48.40;;;;;;4983246;28;20046;-59
2023/07/07 02:41:00;;;;;;;2.65;1.67;;;17.70;48.30;;;;;;4981757;28;20490;-59
2023/07/07 02:43:28;;;;;;;2.08;1.58;;;17.70;48.40;;;;;;4981141;28;20054;-59
2023/07/07 02:45:56;;;;;;;2.33;1.75;;;17.70;48.40;;;;;;4983640;28;20054;-60
2023/07/07 02:48:23;;;;;;;4.25;1.73;;;17.70;48.50;;;;;;4982058;28;20053;-59
2023/07/07 02:51:03;;;;;;;3.55;2.10;;;17.70;48.60;;;;;;4978837;28;20051;-60
2023/07/07 02:53:32;;;;;;;2.60;1.55;;;17.70;48.70;;;;;;4981201;28;20059;-60
2023/07/07 02:56:00;;;;;;;2.33;1.60;;;17.70;48.60;;;;;;4982531;28;20065;-60
2023/07/07 02:58:27;;;;;;;3.60;1.70;;;17.60;48.60;;;;;;4980625;28;20422;-60
2023/07/07 03:01:09;;;;;;;2.90;1.95;;;17.60;48.70;;;;;;4979083;28;20057;-60
2023/07/07 03:03:38;;;;;;;2.50;1.83;;;17.60;48.70;;;;;;4982185;28;20532;-59
2023/07/07 03:06:09;;;;;;;2.53;2.00;;;17.60;48.60;;;;;;4978617;28;20061;-60
2023/07/07 03:08:37;;;;;;;3.08;1.67;;;17.60;48.70;;;;;;4974807;28;20050;-60
2023/07/07 03:11:06;;;;;;;2.75;1.55;;;17.50;48.70;;;;;;4979697;28;20054;-60
2023/07/07 03:13:33;;;;;;;2.65;1.77;;;17.50;48.80;;;;;;4975570;28;20063;-60
2023/07/07 03:16:08;;;;;;;2.72;1.90;;;17.50;48.90;;;;;;4981145;28;20050;-60
2023/07/07 03:18:35;;;;;;;3.05;1.85;;;17.50;49.10;;;;;;4978303;28;20616;-60
2023/07/07 03:21:02;;;;;;;2.15;1.48;;;17.40;49.00;;;;;;4976971;28;20058;-60
2023/07/07 03:23:31;;;;;;;3.13;1.92;;;17.40;49.00;;;;;;4976063;28;20057;-60
2023/07/07 03:26:07;;;;;;;3.65;2.13;;;17.40;49.00;;;;;;4979083;28;20050;-60
2023/07/07 03:28:34;;;;;;;4.68;2.55;;;17.40;49.10;;;;;;4979589;28;20054;-60
2023/07/07 03:31:08;;;;;;;3.88;2.22;;;17.40;49.10;;;;;;4984199;28;20053;-60
2023/07/07 03:33:35;;;;;;;2.95;2.00;;;17.30;49.20;;;;;;4983846;28;20058;-60
2023/07/07 03:36:03;;;;;;;2.10;1.50;;;17.30;49.20;;;;;;4982287;28;20054;-60
2023/07/07 03:38:31;;;;;;;4.63;1.98;;;17.30;49.20;;;;;;4977999;28;20077;-60
2023/07/07 03:40:58;;;;;;;2.80;2.10;;;17.30;49.30;;;;;;4979509;28;20517;-60
2023/07/07 03:43:26;;;;;;;3.00;1.88;;;17.20;49.30;;;;;;4977711;28;20057;-60
2023/07/07 03:45:53;;;;;;;2.78;1.80;;;17.20;49.30;;;;;;4981640;28;20065;-60
2023/07/07 03:48:20;;;;;;;2.45;1.88;;;17.20;49.40;;;;;;4979026;28;20414;-60
2023/07/07 03:50:56;;;;;;;2.25;1.65;;;17.20;49.40;;;;;;4978251;28;20099;-62
2023/07/07 03:53:23;;;;;;;3.45;1.80;;;17.20;49.50;;;;;;4982185;28;20379;-60
2023/07/07 03:55:52;;;;;;;4.28;1.98;;;17.20;49.50;;;;;;4980266;28;20058;-60
2023/07/07 03:58:19;;;;;;;3.25;2.00;;;17.20;49.60;;;;;;4966633;28;20514;-60
2023/07/07 04:00:48;;;;;;;4.50;2.08;;;17.10;49.50;;;;;;4976121;28;20094;-60
2023/07/07 04:03:16;;;;;;;2.85;1.77;;;17.10;49.50;;;;;;4980885;28;20506;-60
2023/07/07 04:05:43;;;;;;;5.95;2.90;;;17.10;49.60;;;;;;4977692;28;20088;-61
2023/07/07 04:08:10;;;;;;;3.53;2.42;;;17.10;49.60;;;;;;4979546;28;20055;-60
2023/07/07 04:10:39;;;;;;;3.13;2.22;;;17.10;49.70;;;;;;4980018;28;20058;-60
2023/07/07 04:13:08;;;;;;;3.50;2.28;;;17.10;49.70;;;;;;4976730;28;20062;-61
2023/07/07 04:15:35;;;;;;;3.22;2.05;;;17.10;49.80;;;;;;4980984;28;20059;-61
2023/07/07 04:18:03;;;;;;;3.50;2.15;;;17.10;49.80;;;;;;4976390;28;20978;-60
2023/07/07 04:20:34;;;;;;;2.35;1.60;;;17.00;49.80;;;;;;4978082;28;20406;-59
2023/07/07 04:23:01;;;;;;;2.40;1.75;;;17.00;49.80;;;;;;4978054;28;20446;-60
2023/07/07 04:25:29;;;;;;;2.72;1.70;;;17.00;49.80;;;;;;4980495;28;20058;-60
2023/07/07 04:27:57;;;;;;;4.22;2.22;;;17.00;49.90;;;;;;4982203;28;20383;-60
2023/07/07 04:30:25;;;;;;;13.77;6.50;;;17.00;49.90;;;;;;4978970;28;20054;-61
2023/07/07 04:32:52;;;;;;;7.30;4.45;;;17.00;50.00;;;;;;4977494;28;20058;-60
2023/07/07 04:35:20;;;;;;;5.10;3.22;;;17.00;50.10;;;;;;4978109;28;20055;-56
2023/07/07 04:37:47;;;;;;;4.03;1.98;;;17.00;50.10;;;;;;4977741;28;20506;-57
2023/07/07 04:40:14;;;;;;;4.68;1.90;;;17.00;50.10;;;;;;4981901;28;21457;-56
2023/07/07 04:42:41;;;;;;;2.53;1.60;;;17.00;50.10;;;;;;4977628;28;20061;-56
2023/07/07 04:45:09;;;;;;;3.35;1.80;;;17.00;50.20;;;;;;4978357;28;20426;-56
2023/07/07 04:47:38;;;;;;;2.78;1.73;;;17.00;50.30;;;;;;4978765;28;20875;-60
2023/07/07 04:50:06;;;;;;;2.75;1.80;;;17.10;50.30;;;;;;4980015;28;20069;-57
2023/07/07 04:52:33;;;;;;;3.33;1.75;;;17.10;50.40;;;;;;4978588;28;20065;-57
2023/07/07 04:55:00;;;;;;;3.83;1.58;;;17.10;50.40;;;;;;4979958;28;20058;-56
2023/07/07 04:57:27;;;;;;;2.03;1.55;;;17.10;50.40;;;;;;4978441;28;20441;-57
2023/07/07 04:59:54;;;;;;;2.83;1.65;;;17.10;50.40;;;;;;4977509;28;20069;-56
2023/07/07 05:02:22;;;;;;;2.30;1.60;;;17.10;50.50;;;;;;4980045;28;20068;-56
2023/07/07 05:04:51;;;;;;;2.72;1.67;;;17.10;50.50;;;;;;4978875;28;20059;-56
2023/07/07 05:07:18;;;;;;;2.05;1.50;;;17.10;50.60;;;;;;4978457;28;20050;-57
2023/07/07 05:09:45;;;;;;;2.38;1.52;;;17.10;50.60;;;;;;4977429;28;20066;-57
2023/07/07 05:12:13;;;;;;;2.75;1.80;;;17.10;50.60;;;;;;4978558;28;20055;-56
2023/07/07 05:14:40;;;;;;;3.58;1.60;;;17.20;50.70;;;;;;4977078;28;20061;-56
2023/07/07 05:17:07;;;;;;;1.90;1.50;;;17.20;50.80;;;;;;4979477;28;20066;-56
2023/07/07 05:19:34;;;;;;;3.33;1.80;;;17.20;50.70;;;;;;4975814;28;20058;-56
2023/07/07 05:22:03;;;;;;;3.53;1.60;;;17.20;50.70;;;;;;4979730;28;20058;-55
2023/07/07 05:24:30;;;;;;;2.00;1.60;;;17.20;50.80;;;;;;4978229;28;20065;-56
2023/07/07 05:26:58;;;;;;;3.15;1.67;;;17.30;50.80;;;;;;4978665;28;20089;-57
2023/07/07 05:29:25;;;;;;;2.92;1.50;;;17.30;50.90;;;;;;4976741;28;20066;-59
2023/07/07 05:31:52;;;;;;;2.95;1.65;;;17.30;50.90;;;;;;4979244;28;20498;-56
2023/07/07 05:34:19;;;;;;;3.00;1.65;;;17.40;51.00;;;;;;4980263;28;20062;-56
2023/07/07 05:36:47;;;;;;;2.60;1.48;;;17.40;51.00;;;;;;4976213;28;20065;-56
2023/07/07 05:39:15;;;;;;;1.63;1.27;;;17.40;51.00;;;;;;4978311;28;20046;-57
2023/07/07 05:41:42;;;;;;;5.45;1.52;;;17.50;51.60;;;;;;4976271;28;20059;-59
2023/07/07 05:44:10;;;;;;;3.20;1.75;;;17.50;51.10;;;;;;4978071;28;20061;-59
2023/07/07 05:46:38;;;;;;;3.60;1.67;;;17.60;51.20;;;;;;4978164;28;20054;-56
2023/07/07 05:49:05;;;;;;;2.25;1.55;;;17.60;51.10;;;;;;4979597;28;20058;-56
2023/07/07 05:51:32;;;;;;;2.00;1.50;;;17.60;51.10;;;;;;4978163;28;20094;-55
2023/07/07 05:53:59;;;;;;;3.80;1.55;;;17.60;51.00;;;;;;4979610;28;20057;-56
2023/07/07 05:56:28;;;;;;;2.00;1.33;;;17.70;51.00;;;;;;4978193;28;20058;-55
2023/07/07 05:58:56;;;;;;;1.77;1.42;;;17.70;51.00;;;;;;4978956;28;20061;-56
2023/07/07 06:01:25;;;;;;;2.35;1.42;;;17.80;51.00;;;;;;4981963;28;20414;-57
2023/07/07 06:03:52;;;;;;;4.22;1.42;;;17.80;50.90;;;;;;4980102;28;20065;-55
2023/07/07 06:06:19;;;;;;;3.33;1.58;;;17.90;50.80;;;;;;4980787;28;20494;-55
2023/07/07 06:08:47;;;;;;;8.05;1.60;;;18.00;50.70;;;;;;4980994;28;20050;-54
2023/07/07 06:11:14;;;;;;;2.05;1.40;;;18.00;50.60;;;;;;4983263;28;20069;-55
2023/07/07 06:13:42;;;;;;;5.15;1.58;;;18.10;50.40;;;;;;4981096;28;20073;-52
2023/07/07 06:16:10;;;;;;;6.47;1.60;;;18.20;50.30;;;;;;4983044;28;20062;-55
2023/07/07 06:18:38;;;;;;;3.10;1.55;;;18.20;50.20;;;;;;4982717;28;20058;-54
2023/07/07 06:21:07;;;;;;;2.80;1.40;;;18.30;50.20;;;;;;4984172;28;20062;-59
2023/07/07 06:23:34;;;;;;;2.03;1.48;;;18.30;50.00;;;;;;4983366;28;20065;-47
2023/07/07 06:26:02;;;;;;;3.58;1.25;;;18.40;50.00;;;;;;4981530;28;20062;-52
2023/07/07 06:28:31;;;;;;;2.38;1.30;;;18.50;50.00;;;;;;4983665;28;20058;-53
2023/07/07 06:30:59;;;;;;;2.50;1.40;;;18.60;50.10;;;;;;4982897;28;20050;-54
2023/07/07 06:33:26;;;;;;;1.75;1.38;;;18.70;50.00;;;;;;4983823;28;20069;-53
2023/07/07 06:35:54;;;;;;;3.20;1.30;;;18.70;49.90;;;;;;4981227;28;20058;-56
2023/07/07 06:38:21;;;;;;;2.97;1.50;;;18.80;49.80;;;;;;4982224;28;20050;-52
2023/07/07 06:40:49;;;;;;;2.85;1.60;;;18.90;49.80;;;;;;4982363;28;20054;-55
2023/07/07 06:43:18;;;;;;;5.38;2.80;;;19.00;49.70;;;;;;4983064;28;20521;-56
2023/07/07 06:45:46;;;;;;;2.92;1.67;;;19.10;49.60;;;;;;4984821;28;20069;-58
2023/07/07 06:48:15;;;;;;;2.60;1.63;;;19.10;49.40;;;;;;4980181;28;20065;-55
2023/07/07 06:50:43;;;;;;;2.72;1.35;;;19.20;49.50;;;;;;4980831;28;20617;-55
2023/07/07 06:53:10;;;;;;;2.78;1.40;;;19.30;49.40;;;;;;4984843;28;20055;-58
2023/07/07 06:55:40;;;;;;;2.78;1.45;;;19.40;49.20;;;;;;4982031;28;20050;-61
2023/07/07 06:58:08;;;;;;;1.77;1.10;;;19.50;49.00;;;;;;4983651;28;20062;-60
2023/07/07 07:00:35;;;;;;;2.60;1.42;;;19.50;48.70;;;;;;4981105;28;20055;-58
2023/07/07 07:03:03;;;;;;;1.90;1.50;;;19.60;48.50;;;;;;4975954;28;20054;-61
2023/07/07 07:05:31;;;;;;;4.97;1.83;;;19.70;48.50;;;;;;4980841;28;20058;-61
2023/07/07 07:07:59;;;;;;;2.42;1.48;;;19.80;48.40;;;;;;4983239;28;20062;-62
2023/07/07 07:10:26;;;;;;;1.40;1.15;;;19.90;48.40;;;;;;4981836;28;20406;-59
2023/07/07 07:12:53;;;;;;;6.10;1.77;;;20.00;48.40;;;;;;4982348;28;20050;-62
2023/07/07 07:15:21;;;;;;;2.40;1.35;;;20.10;48.40;;;;;;4981965;28;20061;-62
2023/07/07 07:17:48;;;;;;;2.53;1.42;;;20.20;48.30;;;;;;4984029;28;20050;-61
2023/07/07 07:20:17;;;;;;;2.15;1.30;;;20.30;48.20;;;;;;4982234;28;20114;-61
2023/07/07 07:22:46;;;;;;;2.55;1.52;;;20.30;48.10;;;;;;4984193;28;20058;-61
2023/07/07 07:25:14;;;;;;;4.80;1.35;;;20.50;48.20;;;;;;4982635;28;20059;-62
2023/07/07 07:27:41;;;;;;;3.10;1.20;;;20.50;48.10;;;;;;4983148;28;20062;-62
2023/07/07 07:30:12;;;;;;;2.10;1.35;;;20.60;48.10;;;;;;4980338;28;20065;-62
2023/07/07 07:32:39;;;;;;;3.22;1.50;;;20.70;48.20;;;;;;4981085;28;20406;-61
2023/07/07 07:35:07;;;;;;;4.15;1.60;;;20.80;48.10;;;;;;4981189;28;20057;-61
2023/07/07 07:37:35;;;;;;;3.08;1.58;;;20.90;47.80;;;;;;4981689;28;20050;-62
2023/07/07 07:40:07;;;;;;;3.63;1.73;;;21.00;47.80;;;;;;4980493;28;20410;-61
2023/07/07 07:42:34;;;;;;;2.30;1.50;;;21.10;47.70;;;;;;4982593;28;20050;-60
2023/07/07 07:45:01;;;;;;;3.70;1.50;;;21.20;47.60;;;;;;4982354;28;20054;-61
2023/07/07 07:47:28;;;;;;;2.05;1.38;;;21.30;47.60;;;;;;4983533;28;20423;-61
2023/07/07 07:49:55;;;;;;;3.20;1.48;;;21.40;47.40;;;;;;4984115;28;20062;-61
2023/07/07 07:52:23;;;;;;;3.63;1.52;;;21.50;48.00;;;;;;4983417;28;20426;-62
2023/07/07 07:54:50;;;;;;;5.32;1.55;;;21.60;47.30;;;;;;4981285;28;20050;-62
2023/07/07 07:57:19;;;;;;;2.85;1.42;;;21.70;47.20;;;;;;4982631;28;20062;-61
2023/07/07 07:59:49;;;;;;;2.88;1.52;;;21.70;46.90;;;;;;4981169;28;20058;-61
2023/07/07 08:02:16;;;;;;;3.63;1.60;;;21.90;46.90;;;;;;4981696;28;20058;-60
2023/07/07 08:04:44;;;;;;;3.30;1.50;;;21.90;46.80;;;;;;4982332;28;20054;-60
2023/07/07 08:07:11;;;;;;;4.38;1.58;;;22.00;46.80;;;;;;4982267;28;20502;-57
2023/07/07 08:09:38;;;;;;;2.55;1.55;;;22.20;46.50;;;;;;4982349;28;20673;-61
2023/07/07 08:12:08;;;;;;;4.70;1.67;;;22.20;46.20;;;;;;4979750;28;20054;-62
2023/07/07 08:14:37;;;;;;;3.90;1.60;;;22.30;46.00;;;;;;4980610;28;20073;-61
2023/07/07 08:17:08;;;;;;;2.92;1.30;;;22.40;46.00;;;;;;4978288;28;20065;-61
2023/07/07 08:19:38;;;;;;;2.40;1.45;;;22.50;46.00;;;;;;4981790;28;20077;-61
2023/07/07 08:22:07;;;;;;;7.07;1.73;;;22.60;46.10;;;;;;4981077;28;20058;-61
2023/07/07 08:24:40;;;;;;;15.90;1.60;;;22.70;46.20;;;;;;4979303;28;20050;-60
2023/07/07 08:27:08;;;;;;;5.57;1.60;;;22.80;45.70;;;;;;4980775;28;20442;-61
2023/07/07 08:29:36;;;;;;;11.32;3.80;;;22.90;45.50;;;;;;4983353;28;20050;-60
2023/07/07 08:32:04;;;;;;;7.45;2.20;;;23.00;45.70;;;;;;4981137;28;20528;-59
2023/07/07 08:37:53;;;;;;;3.85;2.10;;;23.20;45.10;;;;;;4979246;28;20053;-61
2023/07/07 08:40:24;;;;;;;3.38;1.77;;;23.30;44.50;;;;;;4979040;28;20053;-59
2023/07/07 08:42:52;;;;;;;3.30;1.85;;;23.40;44.00;;;;;;4978229;28;20438;-61
2023/07/07 08:45:23;;;;;;;4.80;1.58;;;23.50;43.60;;;;;;4981253;28;20058;-60
2023/07/07 08:48:04;;;;;;;6.18;2.42;;;23.60;43.20;;;;;;4979312;28;20054;-60
2023/07/07 08:50:39;;;;;;;4.53;1.90;;;23.60;42.90;;;;;;4978087;28;20505;-60
2023/07/07 08:53:22;;;;;;;4.55;1.98;;;23.70;42.80;;;;;;4978607;28;20441;-60
2023/07/07 08:55:59;;;;;;;3.78;1.83;;;23.80;42.50;;;;;;4979539;28;20629;-61
2023/07/07 08:58:36;;;;;;;4.35;2.05;;;23.80;42.40;;;;;;4979205;28;20050;-60
2023/07/07 09:01:20;;;;;;;2.92;1.80;;;23.90;42.30;;;;;;4977974;28;20046;-60
2023/07/07 09:04:03;;;;;;;3.42;1.67;;;24.00;41.70;;;;;;4977549;28;20055;-60
2023/07/07 09:06:43;;;;;;;3.13;1.80;;;24.10;42.10;;;;;;4974544;28;20065;-57
2023/07/07 09:09:21;;;;;;;4.25;2.10;;;24.10;41.80;;;;;;4979320;28;20058;-61
2023/07/07 09:12:03;;;;;;;6.40;1.90;;;24.10;41.20;;;;;;4981649;28;20050;-60
2023/07/07 09:14:30;;;;;;;4.03;1.83;;;24.20;41.10;;;;;;4981002;28;20058;-60
2023/07/07 09:17:04;;;;;;;5.35;2.25;;;24.30;41.20;;;;;;4979600;28;20049;-62
2023/07/07 09:19:36;;;;;;;4.10;2.00;;;24.40;40.80;;;;;;4979987;28;20490;-61
2023/07/07 09:22:09;;;;;;;5.10;2.47;;;24.50;40.70;;;;;;4973158;28;20772;-61
2023/07/07 09:24:43;;;;;;;3.70;2.00;;;24.50;40.30;;;;;;4975255;28;20073;-58
2023/07/07 09:27:15;;;;;;;2.50;1.70;;;24.50;40.30;;;;;;4977618;28;20061;-57
2023/07/07 09:29:43;;;;;;;5.15;2.22;;;24.60;40.20;;;;;;4977845;28;20486;-57
2023/07/07 09:32:14;;;;;;;3.05;1.85;;;24.70;39.90;;;;;;4978817;28;20068;-55
2023/07/07 09:34:42;;;;;;;3.05;1.88;;;24.70;40.10;;;;;;4977879;28;20410;-56
2023/07/07 09:37:21;;;;;;;3.42;2.00;;;24.80;39.50;;;;;;4976205;28;20058;-57
2023/07/07 09:40:05;;;;;;;5.53;1.95;;;24.80;38.90;;;;;;4975333;28;20046;-58
2023/07/07 09:42:42;;;;;;;4.43;2.28;;;24.90;39.10;;;;;;4969302;28;20054;-57
2023/07/07 09:45:29;;;;;;;3.72;1.95;;;25.00;39.10;;;;;;4978632;28;20058;-57
2023/07/07 09:48:08;;;;;;;3.45;1.90;;;25.00;39.00;;;;;;4976973;28;20517;-56
2023/07/07 09:50:40;;;;;;;3.67;2.00;;;25.10;38.80;;;;;;4977636;28;20049;-55
2023/07/07 09:53:17;;;;;;;5.78;2.00;;;25.20;38.40;;;;;;4979629;28;20069;-57
2023/07/07 09:55:44;;;;;;;5.32;2.35;;;25.20;37.70;;;;;;4980128;28;20415;-55
2023/07/07 09:58:16;;;;;;;2.97;1.80;;;25.20;38.00;;;;;;4975654;28;20058;-50
2023/07/07 10:00:47;;;;;;;5.78;2.13;;;25.30;38.10;;;;;;4976531;28;20054;-51
2023/07/07 10:03:24;;;;;;;6.85;2.33;;;25.40;38.00;;;;;;4975866;28;20058;-56
2023/07/07 10:05:54;;;;;;;4.60;1.98;;;25.40;37.60;;;;;;4978275;28;20057;-56
2023/07/07 10:08:21;;;;;;;2.30;1.67;;;25.50;37.80;;;;;;4980833;28;20078;-55
2023/07/07 10:11:12;;;;;;;3.13;1.70;;;25.50;37.60;;;;;;4979706;28;20498;-47
2023/07/07 10:13:39;;;;;;;3.33;1.88;;;25.60;36.60;;;;;;4977765;28;20054;-55
2023/07/07 10:16:15;;;;;;;4.45;2.13;;;25.60;36.50;;;;;;4979828;28;20054;-57
2023/07/07 10:18:44;;;;;;;8.35;1.80;;;25.60;36.60;;;;;;4979655;28;20066;-57
2023/07/07 10:21:11;;;;;;;3.42;1.77;;;25.60;36.60;;;;;;4978851;28;20444;-53
2023/07/07 10:23:40;;;;;;;3.95;2.33;;;25.70;36.50;;;;;;4976567;28;20046;-53
2023/07/07 10:26:07;;;;;;;2.72;2.00;;;25.80;36.50;;;;;;4978366;28;20054;-50
2023/07/07 10:28:35;;;;;;;3.05;1.83;;;25.80;36.20;;;;;;4978670;28;20058;-57
2023/07/07 10:31:02;;;;;;;2.35;1.65;;;25.80;36.50;;;;;;4974295;28;20066;-45
2023/07/07 10:33:30;;;;;;;2.55;1.60;;;25.90;36.40;;;;;;4977326;28;20050;-58
2023/07/07 10:36:17;;;;;;;3.28;2.10;;;25.90;35.80;;;;;;4975630;28;20050;-47
2023/07/07 10:38:45;;;;;;;3.42;2.10;;;26.00;35.70;;;;;;4980268;28;20722;-61
2023/07/07 10:41:12;;;;;;;3.60;1.85;;;26.00;35.50;;;;;;4979629;28;20525;-52
2023/07/07 10:43:39;;;;;;;4.53;1.95;;;26.00;35.30;;;;;;4978578;28;20054;-56
2023/07/07 10:46:10;;;;;;;4.15;1.88;;;26.00;34.70;;;;;;4980458;28;20068;-61
2023/07/07 10:48:39;;;;;;;2.40;1.80;;;26.10;34.50;;;;;;4981999;28;20524;-60
2023/07/07 10:51:20;;;;;;;3.20;1.55;;;26.10;34.80;;;;;;4978504;28;20598;-53
2023/07/07 10:53:57;;;;;;;4.13;2.20;;;26.10;34.40;;;;;;4982967;28;20694;-61
2023/07/07 10:56:29;;;;;;;1.95;1.60;;;26.20;34.70;;;;;;4979558;28;20479;-55
2023/07/07 10:59:29;;;;;;;5.35;2.00;;;26.10;34.90;;;;;;4984266;28;20062;-60
2023/07/07 11:02:10;;;;;;;3.72;2.20;;;26.20;34.70;;;;;;4969594;28;20061;-60
2023/07/07 11:05:10;;;;;;;5.63;2.15;;;26.30;34.50;;;;;;4977099;28;20050;-62
2023/07/07 11:07:50;;;;;;;3.92;1.77;;;26.30;34.20;;;;;;4976558;28;20065;-57
2023/07/07 11:10:50;;;;;;;4.35;1.95;;;26.30;34.30;;;;;;4979841;28;20416;-60
2023/07/07 11:13:23;;;;;;;5.03;2.30;;;26.30;33.90;;;;;;4974049;28;20518;-60
2023/07/07 11:16:00;;;;;;;2.93;1.97;;;26.40;34.20;;;;;;4977752;28;20054;-61
2023/07/07 11:18:50;;;;;;;4.75;2.10;;;26.40;34.00;;;;;;4972397;28;21047;-57
2023/07/07 11:21:28;;;;;;;4.03;1.98;;;26.40;33.90;;;;;;4962144;28;20050;-61
2023/07/07 11:24:12;;;;;;;3.78;2.10;;;26.40;33.80;;;;;;4974882;28;20085;-61
2023/07/07 11:26:52;;;;;;;3.40;1.98;;;26.50;33.40;;;;;;4978917;28;20065;-60
2023/07/07 11:29:28;;;;;;;3.00;1.88;;;26.50;33.30;;;;;;4980706;28;20513;-63
2023/07/07 11:32:09;;;;;;;3.38;1.85;;;26.50;33.50;;;;;;4979524;28;20054;-61
2023/07/07 11:35:05;;;;;;;3.72;2.00;;;26.50;33.00;;;;;;4977689;28;20050;-60
2023/07/07 11:37:51;;;;;;;3.50;1.88;;;26.50;33.00;;;;;;4979469;28;20065;-55
2023/07/07 11:40:43;;;;;;;7.32;1.90;;;26.60;33.00;;;;;;4978623;28;20054;-56
2023/07/07 11:43:30;;;;;;;4.53;2.03;;;26.60;33.30;;;;;;4979483;28;20078;-62
2023/07/07 11:46:14;;;;;;;3.45;1.95;;;26.70;33.20;;;;;;4979436;28;20065;-49
2023/07/07 11:48:54;;;;;;;3.38;2.20;;;26.70;33.20;;;;;;4977984;28;20046;-56
2023/07/07 11:51:36;;;;;;;3.67;2.00;;;26.70;33.30;;;;;;4973137;28;20054;-54
2023/07/07 11:54:44;;;;;;;3.42;1.95;;;26.70;32.90;;;;;;4978841;28;20062;-49
2023/07/07 11:57:29;;;;;;;3.13;2.13;;;26.80;33.00;;;;;;4966419;28;20521;-55
2023/07/07 12:00:12;;;;;;;3.58;2.15;;;26.80;32.40;;;;;;4981570;28;20050;-50
2023/07/07 12:02:42;;;;;;;3.92;2.10;;;26.80;32.60;;;;;;4980322;28;20411;-57
2023/07/07 12:05:14;;;;;;;3.65;2.20;;;26.90;32.50;;;;;;4980593;28;20062;-58
2023/07/07 12:07:48;;;;;;;3.35;2.10;;;26.90;32.70;;;;;;4978863;28;20065;-56
2023/07/07 12:10:18;;;;;;;;;;;26.90;32.40;;;;;;4981758;28;20046;-57
2023/07/07 12:12:55;;;;;;;4.18;2.65;;;27.00;33.30;;;;;;4980220;28;19926;-51
2023/07/07 12:15:27;;;;;;;3.80;2.08;;;27.00;32.50;;;;;;4979475;28;20057;-56
2023/07/07 12:18:04;;;;;;;5.05;2.17;;;27.10;32.40;;;;;;4977872;28;20058;-57
2023/07/07 12:20:35;;;;;;;3.75;2.25;;;27.10;32.20;;;;;;4979578;28;20517;-56
2023/07/07 12:23:04;;;;;;;4.72;2.28;;;27.20;32.80;;;;;;4979183;28;20058;-53
2023/07/07 12:25:32;;;;;;;2.42;1.80;;;27.20;32.80;;;;;;4977278;28;20062;-56
2023/07/07 12:28:04;;;;;;;4.68;2.53;;;27.20;32.30;;;;;;4980277;28;20415;-51
2023/07/07 12:30:33;;;;;;;4.25;2.38;;;27.30;31.90;;;;;;4975881;28;20050;-55
2023/07/07 12:33:01;;;;;;;4.57;2.55;;;27.30;32.20;;;;;;4979202;28;20050;-60
2023/07/07 12:35:30;;;;;;;4.40;2.55;;;27.30;32.30;;;;;;4979650;28;20059;-56
2023/07/07 12:38:12;;;;;;;3.63;2.20;;;27.30;32.20;;;;;;4979329;28;20069;-57
2023/07/07 12:40:43;;;;;;;5.13;2.78;;;27.40;31.90;;;;;;4976860;28;20053;-58
2023/07/07 12:43:22;;;;;;;4.10;2.60;;;27.50;31.70;;;;;;4978878;28;20050;-56
2023/07/07 12:45:51;;;;;;;3.60;2.50;;;27.50;31.20;;;;;;4977803;28;20551;-56
2023/07/07 12:48:21;;;;;;;3.70;2.40;;;27.60;31.50;;;;;;4976041;28;20061;-56
2023/07/07 12:50:49;;;;;;;4.13;2.90;;;27.60;31.50;;;;;;4978038;28;20406;-58
2023/07/07 12:53:23;;;;;;;3.63;2.45;;;27.70;31.50;;;;;;4979335;28;20050;-52
2023/07/07 12:56:02;;;;;;;5.57;2.28;;;27.70;31.50;;;;;;4977117;28;20054;-48
2023/07/07 12:58:40;;;;;;;4.43;2.60;;;27.80;31.40;;;;;;4973826;28;20088;-48
2023/07/07 13:01:23;;;;;;;3.50;2.33;;;27.80;31.20;;;;;;4977994;28;20062;-49
2023/07/07 13:04:02;;;;;;;3.78;2.45;;;27.80;31.40;;;;;;4978808;28;20442;-50
2023/07/07 13:06:36;;;;;;;3.78;2.47;;;27.80;31.50;;;;;;4976965;28;20050;-54
2023/07/07 13:09:04;;;;;;;;;;;27.80;31.30;;;;;;4979192;28;20082;-56
2023/07/07 13:11:35;;;;;;;9.43;2.28;;;27.90;32.00;;;;;;4977484;28;19937;-51
2023/07/07 13:14:06;;;;;;;7.97;3.05;;;28.00;31.40;;;;;;4976239;28;20499;-53